NSZ8MV EKCH-ESSA
Flight info
| Callsign | NSZ8MV |
|---|---|
| Flight time | N/A |
| Altitude | 35000 |
| Route | KEMAX DCT RASMU DCT DETSO N873 ARS T317 ELTOK |
| Aircraft | B38M/M-SDE1FGHILORVWXY/HB1 |
Departure
| Time | 2026-05-07 16:14 |
|---|---|
| Airport | Copenhagen Kastrup Airport (EKCH) |
Arrival
| Time | N/A |
|---|---|
| Airport | Stockholm-Arlanda Airport (ESSA) |
| Time | Latitude | Longitude | Altitude | Speed | Heading |
|---|---|---|---|---|---|
| 2026-05-07 15:43 | 55.62816 | 12.64218 | 26 ft | 0 kts | 123° |
| 2026-05-07 15:59 | 55.62821 | 12.64203 | 30 ft | 3 kts | 126° |
| 2026-05-07 15:59 | 55.62834 | 12.64175 | 31 ft | 3 kts | 132° |
| 2026-05-07 16:00 | 55.62846 | 12.64149 | 31 ft | 3 kts | 114° |
| 2026-05-07 16:00 | 55.62850 | 12.64120 | 30 ft | 3 kts | 89° |
| 2026-05-07 16:00 | 55.62845 | 12.64091 | 30 ft | 3 kts | 53° |
| 2026-05-07 16:00 | 55.62833 | 12.64062 | 30 ft | 3 kts | 59° |
| 2026-05-07 16:01 | 55.62825 | 12.64031 | 26 ft | 3 kts | 71° |
| 2026-05-07 16:01 | 55.62822 | 12.64000 | 28 ft | 3 kts | 100° |
| 2026-05-07 16:01 | 55.62827 | 12.63974 | 26 ft | 3 kts | 103° |
| 2026-05-07 16:01 | 55.62831 | 12.63939 | 27 ft | 3 kts | 105° |
| 2026-05-07 16:02 | 55.62837 | 12.63906 | 28 ft | 2 kts | 104° |
| 2026-05-07 16:02 | 55.62837 | 12.63900 | 27 ft | 0 kts | 104° |
| 2026-05-07 16:06 | 55.62837 | 12.63902 | 27 ft | 0 kts | 110° |
| 2026-05-07 16:06 | 55.62830 | 12.63921 | 29 ft | 4 kts | 126° |
| 2026-05-07 16:06 | 55.62800 | 12.63954 | 28 ft | 6 kts | 167° |
| 2026-05-07 16:07 | 55.62756 | 12.63932 | 26 ft | 8 kts | 212° |
| 2026-05-07 16:07 | 55.62703 | 12.63872 | 29 ft | 10 kts | 211° |
| 2026-05-07 16:07 | 55.62640 | 12.63896 | 26 ft | 11 kts | 129° |
| 2026-05-07 16:07 | 55.62594 | 12.64018 | 27 ft | 13 kts | 123° |
| 2026-05-07 16:08 | 55.62540 | 12.64164 | 28 ft | 15 kts | 124° |
| 2026-05-07 16:08 | 55.62476 | 12.64326 | 27 ft | 17 kts | 127° |
| 2026-05-07 16:08 | 55.62401 | 12.64502 | 26 ft | 19 kts | 124° |
| 2026-05-07 16:08 | 55.62326 | 12.64706 | 26 ft | 21 kts | 123° |
| 2026-05-07 16:09 | 55.62244 | 12.64927 | 26 ft | 22 kts | 123° |
| 2026-05-07 16:09 | 55.62170 | 12.65096 | 26 ft | 12 kts | 158° |
| 2026-05-07 16:09 | 55.62089 | 12.65039 | 26 ft | 14 kts | 213° |
| 2026-05-07 16:09 | 55.62004 | 12.64940 | 29 ft | 16 kts | 213° |
| 2026-05-07 16:10 | 55.61905 | 12.64828 | 27 ft | 18 kts | 213° |
| 2026-05-07 16:10 | 55.61796 | 12.64702 | 29 ft | 20 kts | 213° |
| 2026-05-07 16:10 | 55.61676 | 12.64564 | 28 ft | 21 kts | 213° |
| 2026-05-07 16:10 | 55.61547 | 12.64416 | 26 ft | 23 kts | 213° |
| 2026-05-07 16:11 | 55.61408 | 12.64256 | 26 ft | 25 kts | 213° |
| 2026-05-07 16:11 | 55.61264 | 12.64092 | 27 ft | 24 kts | 213° |
| 2026-05-07 16:11 | 55.61120 | 12.63926 | 29 ft | 24 kts | 213° |
| 2026-05-07 16:11 | 55.60976 | 12.63760 | 28 ft | 25 kts | 213° |
| 2026-05-07 16:12 | 55.60831 | 12.63594 | 28 ft | 25 kts | 213° |
| 2026-05-07 16:12 | 55.60679 | 12.63416 | 27 ft | 27 kts | 216° |
| 2026-05-07 16:12 | 55.60541 | 12.63214 | 30 ft | 25 kts | 221° |
| 2026-05-07 16:12 | 55.60430 | 12.63125 | 30 ft | 17 kts | 157° |
| 2026-05-07 16:13 | 55.60351 | 12.63269 | 28 ft | 12 kts | 131° |
| 2026-05-07 16:13 | 55.60342 | 12.63345 | 29 ft | 5 kts | 59° |
| 2026-05-07 16:13 | 55.60358 | 12.63375 | 28 ft | 1 kts | 41° |
| 2026-05-07 16:13 | 55.60381 | 12.63411 | 28 ft | 11 kts | 41° |
| 2026-05-07 16:14 | 55.60604 | 12.63753 | 27 ft | 77 kts | 41° |
| 2026-05-07 16:14 | 55.61164 | 12.64621 | 27 ft | 135 kts | 41° |
| 2026-05-07 16:14 | 55.61992 | 12.65869 | 156 ft | 169 kts | 39° |
| 2026-05-07 16:14 | 55.62873 | 12.67290 | 864 ft | 173 kts | 40° |
| 2026-05-07 16:15 | 55.63770 | 12.68685 | 1712 ft | 171 kts | 39° |
| 2026-05-07 16:15 | 55.64710 | 12.70132 | 2237 ft | 189 kts | 39° |
| 2026-05-07 16:15 | 55.65767 | 12.71719 | 2672 ft | 210 kts | 39° |
| 2026-05-07 16:15 | 55.66949 | 12.73483 | 3109 ft | 232 kts | 39° |
| 2026-05-07 16:16 | 55.68199 | 12.75350 | 3831 ft | 241 kts | 39° |
| 2026-05-07 16:16 | 55.69522 | 12.77326 | 4402 ft | 256 kts | 39° |
| 2026-05-07 16:16 | 55.70891 | 12.79371 | 5280 ft | 257 kts | 39° |
| 2026-05-07 16:16 | 55.72254 | 12.81411 | 6080 ft | 262 kts | 40° |
| 2026-05-07 16:17 | 55.73675 | 12.83540 | 6909 ft | 265 kts | 40° |
| 2026-05-07 16:17 | 55.75072 | 12.85712 | 7663 ft | 269 kts | 41° |
| 2026-05-07 16:17 | 55.76462 | 12.87900 | 8446 ft | 272 kts | 41° |
| 2026-05-07 16:17 | 55.77890 | 12.90144 | 9220 ft | 276 kts | 41° |
| 2026-05-07 16:18 | 55.79338 | 12.92420 | 9990 ft | 280 kts | 41° |
| 2026-05-07 16:18 | 55.80817 | 12.94748 | 10543 ft | 291 kts | 41° |
| 2026-05-07 16:18 | 55.82382 | 12.97211 | 10856 ft | 309 kts | 41° |
| 2026-05-07 16:18 | 55.84029 | 12.99806 | 11295 ft | 322 kts | 41° |
| 2026-05-07 16:19 | 55.85720 | 13.02473 | 11988 ft | 327 kts | 40° |
| 2026-05-07 16:19 | 55.87434 | 13.05181 | 12690 ft | 332 kts | 40° |
| 2026-05-07 16:19 | 55.89182 | 13.07946 | 13398 ft | 338 kts | 40° |
| 2026-05-07 16:19 | 55.90947 | 13.10741 | 14091 ft | 344 kts | 40° |
| 2026-05-07 16:20 | 55.92754 | 13.13606 | 14763 ft | 348 kts | 40° |
| 2026-05-07 16:20 | 55.94570 | 13.16490 | 15475 ft | 352 kts | 40° |
| 2026-05-07 16:20 | 55.96411 | 13.19416 | 16188 ft | 356 kts | 40° |
| 2026-05-07 16:20 | 55.98272 | 13.22379 | 16889 ft | 361 kts | 40° |
| 2026-05-07 16:21 | 56.00156 | 13.25382 | 17577 ft | 365 kts | 40° |
| 2026-05-07 16:21 | 56.02058 | 13.28420 | 18243 ft | 369 kts | 40° |
| 2026-05-07 16:21 | 56.03981 | 13.31494 | 18831 ft | 373 kts | 40° |
| 2026-05-07 16:21 | 56.05922 | 13.34601 | 19420 ft | 376 kts | 40° |
| 2026-05-07 16:22 | 56.07885 | 13.37747 | 19974 ft | 380 kts | 40° |
| 2026-05-07 16:22 | 56.09862 | 13.40920 | 20535 ft | 383 kts | 40° |
| 2026-05-07 16:22 | 56.11887 | 13.44034 | 21083 ft | 385 kts | 32° |
| 2026-05-07 16:22 | 56.14082 | 13.46007 | 21591 ft | 384 kts | 17° |
| 2026-05-07 16:23 | 56.16631 | 13.47528 | 22060 ft | 389 kts | 16° |
| 2026-05-07 16:23 | 56.19204 | 13.49036 | 22619 ft | 391 kts | 15° |
| 2026-05-07 16:23 | 56.21814 | 13.50540 | 23146 ft | 395 kts | 15° |
| 2026-05-07 16:23 | 56.24443 | 13.52037 | 23664 ft | 398 kts | 15° |
| 2026-05-07 16:24 | 56.27101 | 13.53547 | 24094 ft | 402 kts | 15° |
| 2026-05-07 16:24 | 56.29771 | 13.55061 | 24540 ft | 404 kts | 15° |
| 2026-05-07 16:24 | 56.31548 | 13.56071 | 24831 ft | 405 kts | 15° |
| 2026-05-07 16:24 | 56.34249 | 13.57605 | 25256 ft | 408 kts | 15° |
| 2026-05-07 16:25 | 56.36959 | 13.59147 | 25677 ft | 410 kts | 15° |
| 2026-05-07 16:25 | 56.39696 | 13.60708 | 26082 ft | 413 kts | 15° |
| 2026-05-07 16:25 | 56.42441 | 13.62274 | 26495 ft | 416 kts | 15° |
| 2026-05-07 16:25 | 56.45209 | 13.63857 | 26896 ft | 418 kts | 15° |
| 2026-05-07 16:26 | 56.47991 | 13.65449 | 27282 ft | 421 kts | 15° |
| 2026-05-07 16:26 | 56.50793 | 13.67057 | 27662 ft | 424 kts | 15° |